Time;durP1;ratioP1;P1;durP2;ratioP2;P2;SDS_P1;SDS_P2;PMS_P1;PMS_P2;Temp;Humidity;BMP_temperature;BMP_pressure;BME280_temperature;BME280_humidity;BME280_pressure;Samples;Min_cycle;Max_cycle;Signal;HPM_P1;HPM_P2
2022/03/28 00:01:26;;;;;;;;;;;;;;;-6.59;48.53;98611.03;5071316;28;20378;-57
2022/03/28 00:03:52;;;;;;;;;;;;;;;-6.57;47.81;98611.69;5073283;28;19936;-58
2022/03/28 00:06:18;;;;;;;;;;;;;;;-6.57;47.73;98601.38;5071551;28;19983;-58
2022/03/28 00:08:43;;;;;;;;;;;;;;;-6.59;47.61;98609.25;5071578;28;20319;-59
2022/03/28 00:11:09;;;;;;;;;;;;;;;-6.59;48.54;98609.25;5071754;28;19930;-60
2022/03/28 00:13:35;;;;;;;;;;;;;;;-6.60;47.98;98614.56;5073187;28;19929;-59
2022/03/28 00:16:00;;;;;;;;;;;;;;;-6.64;47.66;98614.06;5071461;28;20286;-60
2022/03/28 00:18:26;;;;;;;;;;;;;;;-6.69;48.06;98611.09;5076075;28;19932;-58
2022/03/28 00:20:53;;;;;;;;;;;;;;;-6.67;47.58;98610.00;5074423;28;19931;-59
2022/03/28 00:23:22;;;;;;;;;;;;;;;-6.64;47.54;98619.22;5076313;28;19928;-58
2022/03/28 00:25:47;;;;;;;;;;;;;;;-6.67;47.78;98617.75;5081006;28;19924;-59
2022/03/28 00:28:13;;;;;;;;;;;;;;;-6.67;47.76;98611.78;5094656;28;20030;-58
2022/03/28 00:30:39;;;;;;;;;;;;;;;-6.69;46.94;98616.25;5096055;28;19924;-57
2022/03/28 00:33:04;;;;;;;;;;;;;;;-6.77;47.87;98605.84;5088578;28;20385;-57
2022/03/28 00:35:30;;;;;;;;;;;;;;;-6.77;47.95;98609.25;5095703;28;19924;-58
2022/03/28 00:37:55;;;;;;;;;;;;;;;-6.81;46.68;98607.94;5095633;28;20385;-57
2022/03/28 00:40:22;;;;;;;;;;;;;;;-6.80;46.67;98598.41;5094444;28;20010;-56
2022/03/28 00:42:50;;;;;;;;;;;;;;;-6.81;46.77;98600.19;5092530;28;19963;-57
2022/03/28 00:45:16;;;;;;;;;;;;;;;-6.87;46.21;98598.19;5095491;28;19924;-58
2022/03/28 00:47:42;;;;;;;;;;;;;;;-6.97;47.24;98594.88;5092338;28;20023;-58
2022/03/28 00:50:08;;;;;;;;;;;;;;;-6.93;47.06;98591.06;5095412;28;20405;-57
2022/03/28 00:52:34;;;;;;;;;;;;;;;-6.92;47.45;98595.25;5095661;28;19924;-57
2022/03/28 00:55:00;;;;;;;;;;;;;;;-6.93;46.95;98585.91;5095339;28;19920;-57
2022/03/28 00:57:25;;;;;;;;;;;;;;;-6.92;46.06;98583.16;5083336;28;20022;-57
2022/03/28 00:59:51;;;;;;;;;;;;;;;-6.92;47.27;98590.09;5075832;28;19928;-57
2022/03/28 01:02:16;;;;;;;;;;;;;;;-6.97;46.52;98587.13;5075236;28;19959;-62
2022/03/28 01:04:42;;;;;;;;;;;;;;;-6.92;46.34;98590.09;5094050;28;19934;-61
2022/03/28 01:07:07;;;;;;;;;;;;;;;-6.91;45.99;98589.97;5095095;28;19924;-61
2022/03/28 01:09:33;;;;;;;;;;;;;;;-6.94;46.91;98587.69;5095599;28;19953;-61
2022/03/28 01:11:59;;;;;;;;;;;;;;;-6.98;46.27;98588.09;5095263;28;19967;-61
2022/03/28 01:14:25;;;;;;;;;;;;;;;-7.01;46.90;98589.19;5093687;28;20418;-61
2022/03/28 01:19:35;;;;;;;;;;;;;;;-7.06;47.50;98590.59;5075546;28;19928;-63
2022/03/28 01:22:00;;;;;;;;;;;;;;;-7.03;46.30;98600.59;5073309;28;20299;-62
2022/03/28 01:24:26;;;;;;;;;;;;;;;-7.09;45.93;98597.66;5073579;28;19928;-60
2022/03/28 01:26:51;;;;;;;;;;;;;;;-7.05;47.37;98597.38;5078957;28;19935;-62
2022/03/28 01:29:17;;;;;;;;;;;;;;;-7.09;47.36;98574.47;5094076;28;19928;-62
2022/03/28 01:31:42;;;;;;;;;;;;;;;-7.04;46.85;98573.22;5094616;28;19931;-59
2022/03/28 01:34:15;;;;;;;;;;;;;;;-7.09;47.28;98574.47;5080253;28;19974;-58
2022/03/28 01:36:40;;;;;;;;;;;;;;;-7.07;47.42;98571.75;5073000;28;19924;-57
2022/03/28 01:39:06;;;;;;;;;;;;;;;-7.06;46.89;98575.13;5074682;28;19928;-58
2022/03/28 01:41:31;;;;;;;;;;;;;;;-7.00;47.26;98571.97;5077469;28;19935;-59
2022/03/28 01:43:57;;;;;;;;;;;;;;;-6.94;47.11;98567.06;5076502;28;20028;-59
2022/03/28 01:46:22;;;;;;;;;;;;;;;-6.88;47.64;98558.75;5094367;28;19920;-59
2022/03/28 01:48:48;;;;;;;;;;;;;;;-6.83;47.10;98554.91;5082710;28;19929;-59
2022/03/28 01:51:13;;;;;;;;;;;;;;;-6.78;47.28;98558.66;5075453;28;20400;-60
2022/03/28 01:53:39;;;;;;;;;;;;;;;-6.80;47.54;98547.69;5072816;28;20397;-59
2022/03/28 01:56:04;;;;;;;;;;;;;;;-6.83;47.36;98547.97;5072575;28;19925;-58
2022/03/28 01:58:30;;;;;;;;;;;;;;;-6.81;46.90;98548.66;5093220;28;19928;-59
2022/03/28 02:00:55;;;;;;;;;;;;;;;-6.75;46.86;98555.00;5094319;28;19924;-59
2022/03/28 02:03:21;;;;;;;;;;;;;;;-6.72;46.86;98565.00;5092260;28;19932;-59
2022/03/28 02:05:46;;;;;;;;;;;;;;;-6.82;47.40;98557.34;5092967;28;19924;-58
2022/03/28 02:08:12;;;;;;;;;;;;;;;-6.78;47.45;98558.66;5094173;28;19928;-58
2022/03/28 02:10:37;;;;;;;;;;;;;;;-6.72;46.82;98559.84;5094166;28;20282;-60
2022/03/28 02:13:03;;;;;;;;;;;;;;;-6.65;46.38;98558.28;5077954;28;19932;-57
2022/03/28 02:15:28;;;;;;;;;;;;;;;-6.67;47.25;98557.66;5038558;28;20030;-60
2022/03/28 02:17:54;;;;;;;;;;;;;;;-6.67;46.71;98552.50;5055227;28;19929;-61
2022/03/28 02:20:19;;;;;;;;;;;;;;;-6.72;47.46;98546.97;5073379;28;19925;-59
2022/03/28 02:22:46;;;;;;;;;;;;;;;-6.64;47.21;98558.16;5072052;28;20332;-59
2022/03/28 02:25:12;;;;;;;;;;;;;;;-6.64;46.59;98552.19;5055268;28;19925;-60
2022/03/28 02:27:39;;;;;;;;;;;;;;;-6.56;46.47;98551.44;5073868;28;20420;-61
2022/03/28 02:30:05;;;;;;;;;;;;;;;-6.56;47.38;98554.00;5071758;28;19924;-61
2022/03/28 02:32:31;;;;;;;;;;;;;;;-6.47;46.96;98541.06;5071988;28;19969;-61
2022/03/28 02:34:56;;;;;;;;;;;;;;;-6.51;46.92;98546.66;5072704;28;20028;-63
2022/03/28 02:37:22;;;;;;;;;;;;;;;-6.56;46.40;98543.69;5072801;28;19924;-62
2022/03/28 02:39:47;;;;;;;;;;;;;;;-6.52;46.44;98537.31;5072063;28;19925;-62
2022/03/28 02:42:14;;;;;;;;;;;;;;;-6.44;46.84;98533.03;5072922;28;20381;-62
2022/03/28 02:44:39;;;;;;;;;;;;;;;-6.36;47.13;98531.44;5055001;28;20424;-62
2022/03/28 02:47:05;;;;;;;;;;;;;;;-6.33;45.93;98519.06;5071317;28;19928;-61
2022/03/28 02:49:30;;;;;;;;;;;;;;;-6.27;46.50;98525.38;5073064;28;19932;-61
2022/03/28 02:51:56;;;;;;;;;;;;;;;-6.29;46.78;98524.75;5071005;28;19981;-63
2022/03/28 02:54:22;;;;;;;;;;;;;;;-6.26;46.58;98511.56;5072900;28;19940;-62
2022/03/28 02:56:48;;;;;;;;;;;;;;;-6.29;45.92;98524.75;5073051;28;19932;-62
2022/03/28 02:59:13;;;;;;;;;;;;;;;-6.36;46.48;98514.19;5075379;28;19974;-65
2022/03/28 03:01:39;;;;;;;;;;;;;;;-6.29;46.22;98501.53;5071140;28;20019;-62
2022/03/28 03:04:04;;;;;;;;;;;;;;;-6.26;45.95;98502.03;5072508;28;19936;-64
2022/03/28 03:06:29;;;;;;;;;;;;;;;-6.17;46.07;98497.75;5072530;28;19924;-62
2022/03/28 03:08:55;;;;;;;;;;;;;;;-6.15;46.01;98500.94;5071032;28;20001;-62
2022/03/28 03:11:20;;;;;;;;;;;;;;;-6.13;46.08;98488.72;5072306;28;19929;-63
2022/03/28 03:13:48;;;;;;;;;;;;;;;-6.05;45.83;98490.53;5072667;28;20389;-63
2022/03/28 03:16:14;;;;;;;;;;;;;;;-6.04;45.42;98495.53;5072576;28;19924;-62
2022/03/28 03:18:39;;;;;;;;;;;;;;;-5.98;45.54;98496.69;5072903;28;20392;-64
2022/03/28 03:21:05;;;;;;;;;;;;;;;-5.83;45.97;98487.38;5082023;28;20412;-63
2022/03/28 03:23:30;;;;;;;;;;;;;;;-5.71;45.65;98493.91;5093742;28;19935;-62
2022/03/28 03:25:56;;;;;;;;;;;;;;;-5.54;45.24;98497.34;5074193;28;19954;-63
2022/03/28 03:28:22;;;;;;;;;;;;;;;-5.45;45.13;98482.69;5090336;28;19932;-62
2022/03/28 03:30:48;;;;;;;;;;;;;;;-5.49;44.72;98478.81;5092514;28;20005;-62
2022/03/28 03:33:13;;;;;;;;;;;;;;;-5.42;45.38;98478.97;5092749;28;20305;-63
2022/03/28 03:35:40;;;;;;;;;;;;;;;-5.37;44.89;98474.16;5087250;28;19924;-62
2022/03/28 03:38:05;;;;;;;;;;;;;;;-5.43;45.04;98473.00;5072342;28;20041;-61
2022/03/28 03:40:30;;;;;;;;;;;;;;;-5.45;44.80;98462.00;5072055;28;20417;-62
2022/03/28 03:42:56;;;;;;;;;;;;;;;-5.40;44.69;98459.78;5085446;28;19928;-61
2022/03/28 03:45:21;;;;;;;;;;;;;;;-5.51;44.71;98465.22;5092046;28;19931;-63
2022/03/28 03:47:47;;;;;;;;;;;;;;;-5.37;45.22;98464.63;5091955;28;19928;-63
2022/03/28 03:50:12;;;;;;;;;;;;;;;-5.38;44.80;98454.44;5088724;28;20375;-62
2022/03/28 03:52:38;;;;;;;;;;;;;;;-5.45;44.96;98458.63;5074992;28;19928;-61
2022/03/28 03:55:04;;;;;;;;;;;;;;;-5.41;44.97;98454.75;5083011;28;19924;-58
2022/03/28 03:57:29;;;;;;;;;;;;;;;-5.28;45.04;98463.66;5092159;28;19924;-62
2022/03/28 03:59:55;;;;;;;;;;;;;;;-5.14;44.65;98451.09;5091789;28;20734;-62
2022/03/28 04:02:21;;;;;;;;;;;;;;;-5.02;44.73;98450.63;5091099;28;19924;-62
2022/03/28 04:04:46;;;;;;;;;;;;;;;-4.89;44.25;98455.31;5091783;28;19931;-64
2022/03/28 04:07:13;;;;;;;;;;;;;;;-4.78;44.57;98458.56;5091903;28;19924;-60
2022/03/28 04:09:39;;;;;;;;;;;;;;;-4.68;43.83;98464.34;5090119;28;19924;-64
2022/03/28 04:12:05;;;;;;;;;;;;;;;-4.62;44.03;98458.53;5091647;28;20418;-63
2022/03/28 04:14:31;;;;;;;;;;;;;;;-4.60;43.29;98465.16;5090734;28;19928;-62
2022/03/28 04:16:56;;;;;;;;;;;;;;;-4.59;43.89;98463.38;5091808;28;19931;-60
2022/03/28 04:19:22;;;;;;;;;;;;;;;-4.68;43.26;98454.00;5090410;28;19928;-62
2022/03/28 04:21:48;;;;;;;;;;;;;;;-4.66;43.09;98460.63;5091626;28;19935;-63
2022/03/28 04:24:13;;;;;;;;;;;;;;;-4.58;43.66;98450.28;5090486;28;19928;-57
2022/03/28 04:26:39;;;;;;;;;;;;;;;-4.55;42.71;98448.34;5091273;28;19931;-57
2022/03/28 04:29:04;;;;;;;;;;;;;;;-4.57;42.80;98451.09;5092045;28;19928;-57
2022/03/28 04:31:30;;;;;;;;;;;;;;;-4.50;42.95;98448.66;5089830;28;20027;-59
2022/03/28 04:33:56;;;;;;;;;;;;;;;-4.47;42.92;98446.56;5087687;28;19966;-61
2022/03/28 04:36:23;;;;;;;;;;;;;;;-4.44;42.55;98445.41;5079385;28;19936;-61
2022/03/28 04:38:49;;;;;;;;;;;;;;;-4.42;41.99;98440.88;5071763;28;19935;-61
2022/03/28 04:41:14;;;;;;;;;;;;;;;-4.42;42.78;98440.88;5072147;28;19924;-61
2022/03/28 04:43:40;;;;;;;;;;;;;;;-4.41;42.88;98432.97;5070183;28;19982;-62
2022/03/28 04:46:05;;;;;;;;;;;;;;;-4.29;42.69;98435.19;5071499;28;19924;-61
2022/03/28 04:48:31;;;;;;;;;;;;;;;-4.21;42.47;98427.41;5071269;28;20431;-61
2022/03/28 04:50:57;;;;;;;;;;;;;;;-4.16;41.92;98425.94;5071210;28;19977;-61
2022/03/28 04:53:22;;;;;;;;;;;;;;;-4.14;42.32;98411.06;5071122;28;20229;-60
2022/03/28 04:55:48;;;;;;;;;;;;;;;-4.04;41.72;98412.63;5075720;28;19924;-62
2022/03/28 04:58:13;;;;;;;;;;;;;;;-3.90;42.29;98404.19;5091460;28;19964;-62
2022/03/28 05:00:39;;;;;;;;;;;;;;;-3.91;41.00;98402.56;5089964;28;19933;-64
2022/03/28 05:03:04;;;;;;;;;;;;;;;-3.85;41.74;98398.47;5093804;28;19936;-61
2022/03/28 05:05:30;;;;;;;;;;;;;;;-3.69;40.72;98398.41;5074942;28;20078;-62
2022/03/28 05:07:55;;;;;;;;;;;;;;;-3.53;40.68;98395.72;5074715;28;20317;-63
2022/03/28 05:10:21;;;;;;;;;;;;;;;-3.29;40.49;98381.00;5075746;28;20393;-61
2022/03/28 05:12:46;;;;;;;;;;;;;;;-3.10;40.71;98372.72;5074934;28;19936;-62
2022/03/28 05:15:13;;;;;;;;;;;;;;;-3.10;39.64;98364.16;5069300;28;20349;-59
2022/03/28 05:17:38;;;;;;;;;;;;;;;-3.02;40.72;98358.91;5071264;28;19928;-61
2022/03/28 05:20:05;;;;;;;;;;;;;;;-2.84;40.93;98358.59;5089661;28;19947;-61
2022/03/28 05:22:30;;;;;;;;;;;;;;;-2.63;40.04;98352.69;5093862;28;19920;-60
2022/03/28 05:24:56;;;;;;;;;;;;;;;-2.63;39.72;98335.34;5091474;28;19969;-61
2022/03/28 05:27:22;;;;;;;;;;;;;;;-2.53;40.13;98333.31;5094073;28;19962;-61
2022/03/28 05:29:47;;;;;;;;;;;;;;;-2.36;39.77;98323.50;5090327;28;20393;-62
2022/03/28 05:32:13;;;;;;;;;;;;;;;-2.37;39.04;98313.34;5093199;28;19919;-62
2022/03/28 05:34:39;;;;;;;;;;;;;;;-2.32;38.74;98303.22;5090166;28;19964;-60
2022/03/28 05:37:05;;;;;;;;;;;;;;;-2.25;38.96;98298.91;5092856;28;20388;-61
2022/03/28 05:39:32;;;;;;;;;;;;;;;-2.23;39.08;98294.34;5090127;28;19927;-62
2022/03/28 05:41:57;;;;;;;;;;;;;;;-2.24;38.78;98291.91;5091142;28;20443;-61
2022/03/28 05:44:22;;;;;;;;;;;;;;;-2.22;39.02;98289.94;5081347;28;19929;-62
2022/03/28 05:46:48;;;;;;;;;;;;;;;-2.24;38.34;98295.31;5070814;28;19986;-60
2022/03/28 05:49:14;;;;;;;;;;;;;;;-2.12;38.67;98287.84;5069476;28;20416;-60
2022/03/28 05:51:39;;;;;;;;;;;;;;;-2.13;38.21;98288.84;5074633;28;19970;-61
2022/03/28 05:54:05;;;;;;;;;;;;;;;-2.23;38.44;98291.75;5071668;28;19928;-62
2022/03/28 05:56:31;;;;;;;;;;;;;;;-2.24;38.76;98276.34;5072651;28;19969;-60
2022/03/28 05:58:57;;;;;;;;;;;;;;;-2.30;39.52;98267.47;5071913;28;19935;-62
2022/03/28 06:01:22;;;;;;;;;;;;;;;-2.33;39.57;98255.66;5071329;28;19924;-60
2022/03/28 06:03:48;;;;;;;;;;;;;;;-2.34;39.53;98248.06;5070299;28;19935;-63
2022/03/28 06:06:13;;;;;;;;;;;;;;;-2.10;38.54;98239.94;5072389;28;19924;-62
2022/03/28 06:08:39;;;;;;;;;;;;;;;-1.98;38.49;98224.69;5070974;28;20027;-61
2022/03/28 06:11:05;;;;;;;;;;;;;;;-1.94;38.18;98223.34;5070851;28;20081;-61
2022/03/28 06:13:31;;;;;;;;;;;;;;;-1.84;38.82;98215.22;5087299;28;19928;-61
2022/03/28 06:15:57;;;;;;;;;;;;;;;-1.83;37.66;98206.44;5092135;28;19923;-63
2022/03/28 06:18:22;;;;;;;;;;;;;;;-1.87;38.34;98203.41;5090658;28;19935;-62
2022/03/28 06:20:48;;;;;;;;;;;;;;;-1.92;38.21;98190.19;5091994;28;19927;-61
2022/03/28 06:23:13;;;;;;;;;;;;;;;-1.79;38.13;98183.47;5089330;28;19924;-60
2022/03/28 06:25:40;;;;;;;;;;;;;;;-1.91;38.00;98181.41;5073980;28;19924;-62
2022/03/28 06:28:06;;;;;;;;;;;;;;;-2.10;38.55;98185.41;5091647;28;20498;-62
2022/03/28 06:30:31;;;;;;;;;;;;;;;-1.83;38.19;98186.44;5086301;28;19989;-61
2022/03/28 06:32:57;;;;;;;;;;;;;;;-1.93;38.37;98177.38;5072566;28;19928;-61
2022/03/28 06:35:22;;;;;;;;;;;;;;;-1.93;37.70;98173.00;5092294;28;19919;-63
2022/03/28 06:37:52;;;;;;;;;;;;;;;-1.80;38.24;98164.50;5091149;28;19934;-61
2022/03/28 06:40:17;;;;;;;;;;;;;;;-1.68;37.19;98157.00;5086655;28;19924;-60
2022/03/28 06:42:43;;;;;;;;;;;;;;;-1.76;36.98;98154.56;5056939;28;19946;-61
2022/03/28 06:45:10;;;;;;;;;;;;;;;-1.48;37.20;98144.13;5089372;28;20396;-61
2022/03/28 06:47:36;;;;;;;;;;;;;;;-1.30;36.86;98128.03;5090519;28;20015;-61
2022/03/28 06:50:01;;;;;;;;;;;;;;;-1.24;36.62;98122.88;5087112;28;20818;-62
2022/03/28 06:52:28;;;;;;;;;;;;;;;-1.17;36.53;98128.13;5087543;28;20006;-61
2022/03/28 06:54:54;;;;;;;;;;;;;;;-1.23;36.60;98113.31;5089095;28;20022;-61
2022/03/28 06:57:20;;;;;;;;;;;;;;;-1.47;36.93;98104.16;5086205;28;20024;-60
2022/03/28 06:59:45;;;;;;;;;;;;;;;-1.38;37.08;98103.03;5090182;28;19969;-61
2022/03/28 07:02:11;;;;;;;;;;;;;;;-1.32;36.62;98097.06;5068813;28;19928;-61
2022/03/28 07:04:36;;;;;;;;;;;;;;;-1.25;37.29;98081.47;5085907;28;19928;-62
2022/03/28 07:07:02;;;;;;;;;;;;;;;-1.17;37.53;98078.72;5068905;28;20015;-66
2022/03/28 07:09:28;;;;;;;;;;;;;;;-1.23;36.24;98071.69;5067735;28;19928;-65
2022/03/28 07:11:54;;;;;;;;;;;;;;;-1.26;36.78;98059.09;5080002;28;19924;-61
2022/03/28 07:14:20;;;;;;;;;;;;;;;-1.14;36.71;98047.13;5086367;28;19935;-61
2022/03/28 07:16:46;;;;;;;;;;;;;;;-1.06;37.12;98046.97;5089167;28;19924;-61
2022/03/28 07:19:13;;;;;;;;;;;;;;;-1.19;36.65;98032.09;5085909;28;19932;-61
2022/03/28 07:21:38;;;;;;;;;;;;;;;-0.99;36.77;98015.75;5047617;28;19932;-60
2022/03/28 07:24:04;;;;;;;;;;;;;;;-0.91;35.73;98010.38;5048205;28;19929;-61
2022/03/28 07:26:29;;;;;;;;;;;;;;;-0.82;35.97;97990.19;5036518;28;19977;-61
2022/03/28 07:28:58;;;;;;;;;;;;;;;-0.80;36.01;97994.16;5069471;28;19928;-61
2022/03/28 07:31:23;;;;;;;;;;;;;;;-0.87;35.55;97985.56;5069542;28;19924;-61
2022/03/28 07:33:49;;;;;;;;;;;;;;;-0.80;35.45;97986.38;5070268;28;19929;-62
2022/03/28 07:36:15;;;;;;;;;;;;;;;-0.78;35.34;97976.56;5070178;28;19924;-63
2022/03/28 07:38:41;;;;;;;;;;;;;;;-0.93;35.71;97966.34;5067209;28;19933;-61
2022/03/28 07:41:07;;;;;;;;;;;;;;;-1.05;36.02;97947.13;5076329;28;20515;-61
2022/03/28 07:43:32;;;;;;;;;;;;;;;-0.99;36.55;97940.34;5089026;28;20294;-60
2022/03/28 07:45:58;;;;;;;;;;;;;;;-0.92;36.13;97938.53;5086449;28;20383;-63
2022/03/28 07:48:24;;;;;;;;;;;;;;;-0.95;36.46;97937.13;5055896;28;19928;-61
2022/03/28 07:50:50;;;;;;;;;;;;;;;-0.86;37.25;97927.31;5066807;28;20318;-63
2022/03/28 07:53:16;;;;;;;;;;;;;;;-0.81;37.80;97930.13;5067610;28;19929;-63
2022/03/28 07:55:42;;;;;;;;;;;;;;;-0.63;37.21;97918.31;5071045;28;20422;-63
2022/03/28 07:58:08;;;;;;;;;;;;;;;-0.71;37.35;97908.91;5067976;28;19936;-63
2022/03/28 08:00:34;;;;;;;;;;;;;;;-0.80;38.47;97903.09;5067550;28;20362;-60
2022/03/28 08:03:00;;;;;;;;;;;;;;;-0.71;38.42;97901.94;5073019;28;20321;-61
2022/03/28 08:05:26;;;;;;;;;;;;;;;-0.66;38.22;97887.50;5082355;28;19993;-62
2022/03/28 08:07:51;;;;;;;;;;;;;;;-0.71;38.23;97875.09;5079665;28;19932;-62
2022/03/28 08:10:17;;;;;;;;;;;;;;;-0.70;39.30;97874.91;5080861;28;20091;-62
2022/03/28 08:12:43;;;;;;;;;;;;;;;-0.82;40.23;97866.09;5069237;28;20385;-63
2022/03/28 08:15:09;;;;;;;;;;;;;;;-0.95;40.81;97850.50;5068644;28;19936;-62
2022/03/28 08:17:35;;;;;;;;;;;;;;;-0.78;41.68;97845.69;5072400;28;20372;-62
2022/03/28 08:20:01;;;;;;;;;;;;;;;-1.09;42.10;97830.69;5065498;28;20076;-63
2022/03/28 08:22:28;;;;;;;;;;;;;;;-1.01;42.57;97815.69;5069520;28;19929;-62
2022/03/28 08:24:53;;;;;;;;;;;;;;;-1.09;42.71;97794.28;5067688;28;19924;-62
2022/03/28 08:27:19;;;;;;;;;;;;;;;-1.15;43.56;97799.31;5071676;28;19939;-62
2022/03/28 08:29:45;;;;;;;;;;;;;;;-1.37;45.28;97790.09;5068800;28;20023;-60
2022/03/28 08:32:11;;;;;;;;;;;;;;;-1.38;47.41;97778.13;5069140;28;19946;-62
2022/03/28 08:34:37;;;;;;;;;;;;;;;-1.27;48.62;97774.09;5068658;28;20042;-60
2022/03/28 08:37:02;;;;;;;;;;;;;;;-1.31;50.06;97768.50;5070460;28;20464;-59
2022/03/28 08:39:28;;;;;;;;;;;;;;;-1.45;51.32;97761.69;5085626;28;20301;-60
2022/03/28 08:41:53;;;;;;;;;;;;;;;-1.42;53.01;97756.09;5086820;28;20010;-58
2022/03/28 08:44:20;;;;;;;;;;;;;;;-1.67;53.02;97738.50;5092972;28;20138;-60
2022/03/28 08:46:45;;;;;;;;;;;;;;;-1.76;53.33;97715.53;5093034;28;19955;-60
2022/03/28 08:49:12;;;;;;;;;;;;;;;-1.68;54.40;97694.53;5074199;28;20336;-62
2022/03/28 08:51:39;;;;;;;;;;;;;;;-1.45;54.64;97705.31;5090822;28;19975;-63
2022/03/28 08:54:04;;;;;;;;;;;;;;;-1.29;57.05;97698.13;5091269;28;19969;-60
2022/03/28 08:56:30;;;;;;;;;;;;;;;-1.26;56.53;97695.13;5090439;28;19924;-59
2022/03/28 08:58:55;;;;;;;;;;;;;;;-1.23;56.81;97676.50;5091888;28;19935;-60
2022/03/28 09:01:21;;;;;;;;;;;;;;;-1.23;56.31;97666.91;5092907;28;20421;-61
2022/03/28 09:03:48;;;;;;;;;;;;;;;-1.26;55.54;97659.50;5091752;28;19982;-60
2022/03/28 09:06:29;;;;;;;;;;;;;;;-1.13;56.34;97661.28;5091434;28;19924;-60
2022/03/28 09:08:55;;;;;;;;;;;;;;;-1.01;56.66;97654.44;5091337;28;19928;-60
2022/03/28 09:11:21;;;;;;;;;;;;;;;-1.00;56.98;97650.03;5092148;28;19928;-60
2022/03/28 09:13:46;;;;;;;;;;;;;;;-0.84;56.47;97643.56;5090351;28;19981;-60
2022/03/28 09:16:17;;;;;;;;;;;;;;;-0.87;57.27;97641.38;5089272;28;19923;-63
2022/03/28 09:18:43;;;;;;;;;;;;;;;-0.94;56.21;97631.81;5091565;28;20482;-62
2022/03/28 09:21:11;;;;;;;;;;;;;;;-1.12;58.07;97623.06;5091291;28;19947;-62
2022/03/28 09:23:38;;;;;;;;;;;;;;;-0.83;57.61;97611.34;5091109;28;19943;-64
2022/03/28 09:26:06;;;;;;;;;;;;;;;-0.73;58.37;97607.28;5090817;28;20446;-64
2022/03/28 09:28:38;;;;;;;;;;;;;;;-0.86;58.01;97601.34;5089830;28;19938;-63
2022/03/28 09:31:23;;;;;;;;;;;;;;;-0.54;58.73;97591.78;5092571;28;20389;-63
2022/03/28 09:34:07;;;;;;;;;;;;;;;-0.55;57.22;97588.38;5091010;28;19928;-64
2022/03/28 09:36:44;;;;;;;;;;;;;;;-0.78;57.83;97575.09;5081308;28;20392;-66
2022/03/28 09:39:16;;;;;;;;;;;;;;;-0.69;60.04;97579.84;5088068;28;19935;-65
2022/03/28 09:41:43;;;;;;;;;;;;;;;-0.48;59.21;97564.91;5086146;28;19928;-65
2022/03/28 09:44:08;;;;;;;;;;;;;;;-0.42;60.02;97558.84;5085452;28;19959;-61
2022/03/28 09:46:34;;;;;;;;;;;;;;;-0.37;60.99;97559.00;5093340;28;20065;-66
2022/03/28 09:49:00;;;;;;;;;;;;;;;-0.26;58.65;97552.34;5089707;28;19956;-65
2022/03/28 09:51:26;;;;;;;;;;;;;;;-0.19;59.80;97550.47;5085379;28;19924;-63
2022/03/28 09:53:52;;;;;;;;;;;;;;;-0.16;59.39;97544.81;5093357;28;19932;-63
2022/03/28 09:56:18;;;;;;;;;;;;;;;0.01;59.20;97545.09;5091746;28;20249;-64
2022/03/28 09:58:58;;;;;;;;;;;;;;;-0.20;57.94;97533.25;5090584;28;19928;-63
2022/03/28 10:01:24;;;;;;;;;;;;;;;-0.14;57.75;97523.78;5089756;28;19924;-61
2022/03/28 10:03:53;;;;;;;;;;;;;;;-0.39;57.19;97516.78;5090794;28;19934;-59
2022/03/28 10:06:19;;;;;;;;;;;;;;;-0.42;58.33;97516.41;5090004;28;20026;-61
2022/03/28 10:08:45;;;;;;;;;;;;;;;-0.51;60.67;97511.47;5089967;28;19935;-60
2022/03/28 10:11:11;;;;;;;;;;;;;;;-0.35;59.78;97509.34;5090972;28;19924;-61
2022/03/28 10:13:38;;;;;;;;;;;;;;;-0.06;59.56;97507.88;5091078;28;19928;-63
2022/03/28 10:16:04;;;;;;;;;;;;;;;-0.15;58.87;97502.13;5090045;28;19924;-60
2022/03/28 10:18:30;;;;;;;;;;;;;;;0.05;59.54;97485.53;5090747;28;20433;-61
2022/03/28 10:20:56;;;;;;;;;;;;;;;-0.05;58.36;97486.03;5091435;28;20109;-60
2022/03/28 10:23:25;;;;;;;;;;;;;;;0.03;59.91;97475.34;5091180;28;19932;-60
2022/03/28 10:25:52;;;;;;;;;;;;;;;-0.02;60.05;97449.94;5092700;28;19953;-62
2022/03/28 10:28:18;;;;;;;;;;;;;;;-0.14;59.61;97474.31;5090972;28;20328;-59
2022/03/28 10:30:44;;;;;;;;;;;;;;;-0.03;60.62;97460.56;5082655;28;20345;-62
2022/03/28 10:33:11;;;;;;;;;;;;;;;-0.22;59.32;97451.94;5071504;28;19929;-60
2022/03/28 10:35:37;;;;;;;;;;;;;;;-0.09;60.26;97445.78;5072353;28;19928;-61
2022/03/28 10:38:15;;;;;;;;;;;;;;;-0.14;60.06;97435.25;5080140;28;19981;-62
2022/03/28 10:40:55;;;;;;;;;;;;;;;-0.11;60.61;97427.00;5088795;28;19932;-63
2022/03/28 10:43:21;;;;;;;;;;;;;;;-0.01;61.56;97417.66;5049722;28;19967;-61
2022/03/28 10:45:56;;;;;;;;;;;;;;;0.06;60.45;97414.16;5048886;28;20007;-61
2022/03/28 10:48:33;;;;;;;;;;;;;;;-0.11;60.75;97408.78;5050803;28;19929;-67
2022/03/28 10:51:03;;;;;;;;;;;;;;;0.03;59.58;97391.97;5052079;28;19979;-62
2022/03/28 10:53:31;;;;;;;;;;;;;;;0.05;60.67;97384.72;5050120;28;19944;-61
2022/03/28 10:56:05;;;;;;;;;;;;;;;0.08;61.73;97381.69;5013119;28;19971;-62
2022/03/28 10:58:32;;;;;;;;;;;;;;;0.29;60.15;97382.22;5048662;28;19929;-62
2022/03/28 11:01:07;;;;;;;;;;;;;;;0.51;60.43;97378.13;5060053;28;20026;-62
2022/03/28 11:03:36;;;;;;;;;;;;;;;0.57;60.29;97386.88;5069050;28;20364;-61
2022/03/28 11:06:02;;;;;;;;;;;;;;;0.44;58.75;97367.81;5072244;28;20251;-61
2022/03/28 11:08:31;;;;;;;;;;;;;;;0.35;60.20;97376.94;5090433;28;19928;-62
2022/03/28 11:11:15;;;;;;;;;;;;;;;0.59;59.29;97353.53;5090144;28;20459;-62
2022/03/28 11:13:41;;;;;;;;;;;;;;;0.17;58.33;97336.06;5072588;28;20022;-62
2022/03/28 11:16:16;;;;;;;;;;;;;;;0.00;58.97;97337.72;5087114;28;20010;-63
2022/03/28 11:18:41;;;;;;;;;;;;;;;0.07;60.39;97320.19;5088232;28;19975;-64
2022/03/28 11:21:09;;;;;;;;;;;;;;;0.32;59.71;97301.00;5089461;28;20900;-65
2022/03/28 11:23:37;;;;;;;;;;;;;;;0.52;59.83;97288.47;5072497;28;20026;-61
2022/03/28 11:26:03;;;;;;;;;;;;;;;0.37;57.79;97277.69;5087056;28;19927;-62
2022/03/28 11:28:29;;;;;;;;;;;;;;;0.64;60.28;97267.63;5069429;28;19928;-61
2022/03/28 11:30:56;;;;;;;;;;;;;;;0.87;58.69;97259.03;5083106;28;19950;-63
2022/03/28 11:33:23;;;;;;;;;;;;;;;1.01;58.56;97241.34;5069011;28;20345;-62
2022/03/28 11:35:56;;;;;;;;;;;;;;;1.26;57.50;97228.81;5085053;28;19931;-64
2022/03/28 11:38:22;;;;;;;;;;;;;;;1.26;56.46;97217.56;5073411;28;20382;-64
2022/03/28 11:40:48;;;;;;;;;;;;;;;1.15;56.53;97224.44;5066557;28;19931;-62
2022/03/28 11:43:13;;;;;;;;;;;;;;;0.97;57.56;97219.31;5069926;28;19928;-64
2022/03/28 11:45:46;;;;;;;;;;;;;;;1.15;58.29;97206.16;5067776;28;19973;-62
2022/03/28 11:48:12;;;;;;;;;;;;;;;1.22;58.06;97187.75;5069128;28;19928;-63
2022/03/28 11:50:37;;;;;;;;;;;;;;;1.17;57.48;97180.59;5068541;28;20026;-63
2022/03/28 11:53:03;;;;;;;;;;;;;;;1.30;58.13;97182.97;5068767;28;20034;-62
2022/03/28 11:55:29;;;;;;;;;;;;;;;1.46;57.45;97162.38;5067461;28;19930;-62
2022/03/28 12:00:40;;;;;;;;;;;;;;;1.03;57.33;97145.34;5069051;28;19994;-61
2022/03/28 12:03:08;;;;;;;;;;;;;;;0.85;56.96;97136.69;5067749;28;20386;-62
2022/03/28 12:05:39;;;;;;;;;;;;;;;1.13;59.18;97117.66;5069075;28;19931;-61
2022/03/28 12:08:13;;;;;;;;;;;;;;;1.09;57.77;97097.50;5073784;28;20022;-62
2022/03/28 12:10:39;;;;;;;;;;;;;;;0.65;58.39;97076.28;5089872;28;20012;-61
2022/03/28 12:13:06;;;;;;;;;;;;;;;0.81;58.99;97061.72;5086273;28;19928;-61
2022/03/28 12:15:39;;;;;;;;;;;;;;;0.88;59.92;97076.22;5085295;28;19928;-66
2022/03/28 12:18:08;;;;;;;;;;;;;;;0.97;59.41;97063.63;5088840;28;19935;-63
2022/03/28 12:20:38;;;;;;;;;;;;;;;1.18;59.44;97049.13;5085904;28;20014;-61
2022/03/28 12:23:05;;;;;;;;;;;;;;;1.29;60.78;97037.03;5089190;28;20274;-61
2022/03/28 12:25:30;;;;;;;;;;;;;;;1.40;60.61;97004.06;5086322;28;19930;-63
2022/03/28 12:27:57;;;;;;;;;;;;;;;1.32;60.20;97020.91;5088143;28;20042;-62
2022/03/28 12:30:23;;;;;;;;;;;;;;;1.14;60.84;97007.03;5086854;28;19927;-63
2022/03/28 12:32:49;;;;;;;;;;;;;;;0.75;62.37;97034.75;5084569;28;19973;-61
2022/03/28 12:35:16;;;;;;;;;;;;;;;0.60;62.50;97014.41;5088869;28;20355;-61
2022/03/28 12:37:42;;;;;;;;;;;;;;;0.19;63.43;97050.06;5090287;28;20357;-63
2022/03/28 12:40:07;;;;;;;;;;;;;;;0.29;64.21;97059.09;5086511;28;20006;-62
2022/03/28 12:42:34;;;;;;;;;;;;;;;0.26;62.94;97055.13;5087823;28;20409;-61
2022/03/28 12:44:59;;;;;;;;;;;;;;;0.22;63.69;97043.59;5087327;28;19928;-61
2022/03/28 12:47:28;;;;;;;;;;;;;;;0.26;63.20;97047.31;5087124;28;20389;-60
2022/03/28 12:49:54;;;;;;;;;;;;;;;0.34;65.10;97043.59;5069003;28;20522;-61